Time;durP1;ratioP1;P1;durP2;ratioP2;P2;SDS_P1;SDS_P2;PMS_P1;PMS_P2;Temp;Humidity;BMP_temperature;BMP_pressure;BME280_temperature;BME280_humidity;BME280_pressure;Samples;Min_cycle;Max_cycle;Signal;HPM_P1;HPM_P2
2023/08/10 00:01:49;;;;;;;1.58;1.48;;;22.30;57.90;;;;;;4960694;28;20273;-79
2023/08/10 00:04:17;;;;;;;1.40;1.30;;;22.30;57.90;;;;;;4976404;28;20206;-79
2023/08/10 00:06:45;;;;;;;1.55;1.45;;;22.30;57.90;;;;;;4961012;28;20244;-79
2023/08/10 00:09:12;;;;;;;1.67;1.58;;;22.30;57.90;;;;;;4976771;28;20194;-79
2023/08/10 00:11:39;;;;;;;2.80;1.33;;;22.30;57.90;;;;;;4976700;28;20217;-79
2023/08/10 00:14:08;;;;;;;1.40;1.30;;;22.20;57.80;;;;;;4976359;28;20206;-79
2023/08/10 00:16:35;;;;;;;1.60;1.50;;;22.20;57.80;;;;;;4976063;28;20209;-79
2023/08/10 00:19:02;;;;;;;1.80;1.70;;;22.20;57.80;;;;;;4976473;28;20205;-79
2023/08/10 00:21:29;;;;;;;1.30;1.25;;;22.20;57.90;;;;;;4976647;28;20688;-79
2023/08/10 00:23:56;;;;;;;1.20;1.20;;;22.20;57.80;;;;;;4976323;28;20272;-79
2023/08/10 00:26:23;;;;;;;1.40;1.30;;;22.20;57.80;;;;;;5024597;23;20569;-78
2023/08/10 00:28:50;;;;;;;1.60;1.50;;;22.10;57.70;;;;;;4998787;28;20197;-78
2023/08/10 00:31:19;;;;;;;1.80;1.50;;;22.20;57.80;;;;;;4998617;28;20212;-78
2023/08/10 00:33:46;;;;;;;1.35;1.25;;;22.10;57.60;;;;;;4998517;28;20675;-78
2023/08/10 00:36:13;;;;;;;1.42;1.33;;;22.20;57.60;;;;;;4998289;28;20196;-78
2023/08/10 00:38:40;;;;;;;1.58;1.48;;;22.20;57.50;;;;;;4998383;28;20216;-78
2023/08/10 00:41:08;;;;;;;1.65;1.50;;;22.10;57.50;;;;;;4999138;28;20226;-78
2023/08/10 00:43:35;;;;;;;1.40;1.30;;;22.10;57.40;;;;;;4999555;28;20592;-78
2023/08/10 00:46:03;;;;;;;1.40;1.30;;;22.10;57.30;;;;;;4998850;28;20215;-78
2023/08/10 00:48:33;;;;;;;1.33;1.23;;;22.10;57.30;;;;;;4998596;28;20207;-78
2023/08/10 00:51:00;;;;;;;1.63;1.42;;;22.10;57.30;;;;;;4998328;28;20213;-78
2023/08/10 00:53:27;;;;;;;1.75;1.40;;;22.00;57.20;;;;;;4999127;28;20283;-78
2023/08/10 00:55:54;;;;;;;1.60;1.50;;;22.00;57.20;;;;;;4998613;28;20211;-78
2023/08/10 00:58:21;;;;;;;1.50;1.40;;;22.00;57.10;;;;;;4999548;28;20216;-78
2023/08/10 01:00:49;;;;;;;1.52;1.40;;;22.10;57.10;;;;;;4998581;28;20271;-78
2023/08/10 01:03:16;;;;;;;1.58;1.48;;;22.00;57.00;;;;;;4998611;28;20251;-78
2023/08/10 01:05:51;;;;;;;1.40;1.30;;;22.00;57.00;;;;;;4997649;28;20247;-78
2023/08/10 01:08:22;;;;;;;3.10;1.40;;;22.00;57.00;;;;;;5015724;28;20188;-78
2023/08/10 01:10:55;;;;;;;1.80;1.23;;;22.00;56.90;;;;;;4981572;28;20766;-78
2023/08/10 01:13:25;;;;;;;1.40;1.30;;;22.00;56.90;;;;;;4997286;28;20203;-78
2023/08/10 01:15:54;;;;;;;1.50;1.40;;;21.90;56.80;;;;;;4997585;28;20251;-78
2023/08/10 01:18:24;;;;;;;1.35;1.25;;;21.90;56.70;;;;;;4997758;28;20336;-77
2023/08/10 01:20:53;;;;;;;2.00;1.48;;;21.90;56.70;;;;;;4997614;28;20217;-77
2023/08/10 01:23:23;;;;;;;1.60;1.50;;;21.90;56.60;;;;;;4998059;28;20262;-77
2023/08/10 01:25:52;;;;;;;1.60;1.50;;;21.90;56.60;;;;;;4998780;28;20216;-77
2023/08/10 01:28:19;;;;;;;2.20;1.70;;;21.90;56.60;;;;;;4981844;28;20204;-77
2023/08/10 01:30:46;;;;;;;1.60;1.50;;;21.90;56.50;;;;;;4998680;28;20347;-77
2023/08/10 01:33:13;;;;;;;1.60;1.50;;;21.80;56.50;;;;;;4998048;28;20193;-77
2023/08/10 01:35:41;;;;;;;1.40;1.30;;;21.80;56.50;;;;;;4997844;28;20706;-77
2023/08/10 01:38:09;;;;;;;1.60;1.50;;;21.80;56.50;;;;;;4998918;28;20590;-77
2023/08/10 01:40:36;;;;;;;1.67;1.40;;;21.80;56.40;;;;;;4997500;28;20217;-77
2023/08/10 01:43:05;;;;;;;2.55;1.70;;;21.80;56.40;;;;;;4997425;28;20668;-77
2023/08/10 01:45:32;;;;;;;1.50;1.40;;;21.80;56.30;;;;;;4997165;28;20221;-77
2023/08/10 01:48:03;;;;;;;1.40;1.30;;;21.70;56.30;;;;;;4997742;28;20287;-77
2023/08/10 01:50:32;;;;;;;1.70;1.60;;;21.70;56.30;;;;;;4997257;28;20240;-77
2023/08/10 01:53:03;;;;;;;1.42;1.33;;;21.70;56.20;;;;;;4997044;28;20193;-77
2023/08/10 01:55:30;;;;;;;1.40;1.30;;;21.70;56.20;;;;;;4981596;28;20227;-77
2023/08/10 01:57:58;;;;;;;1.67;1.58;;;21.70;56.20;;;;;;4996885;28;20200;-77
2023/08/10 02:00:26;;;;;;;1.60;1.50;;;21.60;56.10;;;;;;4996826;28;20220;-77
2023/08/10 02:02:53;;;;;;;1.75;1.45;;;21.60;56.10;;;;;;4996785;28;20747;-77
2023/08/10 02:05:21;;;;;;;1.77;1.58;;;21.70;56.00;;;;;;4980634;28;20741;-77
2023/08/10 02:07:49;;;;;;;1.88;1.65;;;21.70;55.90;;;;;;4996810;28;20228;-77
2023/08/10 02:10:17;;;;;;;1.50;1.40;;;21.60;55.80;;;;;;4996837;28;20216;-77
2023/08/10 02:12:43;;;;;;;3.30;1.60;;;21.60;55.80;;;;;;4997089;28;20235;-77
2023/08/10 02:15:12;;;;;;;1.50;1.40;;;21.60;55.80;;;;;;4996734;28;20192;-77
2023/08/10 02:17:41;;;;;;;1.75;1.50;;;21.60;55.90;;;;;;4996884;28;20193;-77
2023/08/10 02:20:12;;;;;;;1.90;1.50;;;21.50;55.80;;;;;;4996929;28;20644;-77
2023/08/10 02:22:41;;;;;;;1.88;1.58;;;21.50;55.80;;;;;;4996997;28;20211;-77
2023/08/10 02:25:08;;;;;;;1.50;1.40;;;21.60;55.90;;;;;;4997420;28;20204;-77
2023/08/10 02:27:36;;;;;;;1.67;1.20;;;21.50;55.70;;;;;;5003069;28;20196;-77
2023/08/10 02:30:03;;;;;;;1.98;1.70;;;21.50;55.80;;;;;;5015793;28;20204;-77
2023/08/10 02:32:31;;;;;;;1.27;1.23;;;21.50;55.80;;;;;;5016908;28;20211;-77
2023/08/10 02:34:59;;;;;;;1.90;1.80;;;21.50;55.80;;;;;;5004820;28;20207;-77
2023/08/10 02:37:27;;;;;;;1.60;1.50;;;21.50;55.70;;;;;;4999699;28;20200;-77
2023/08/10 02:39:55;;;;;;;2.35;1.50;;;21.50;55.70;;;;;;4998321;28;20408;-77
2023/08/10 02:42:22;;;;;;;1.60;1.50;;;21.50;55.60;;;;;;4997084;28;20258;-77
2023/08/10 02:44:50;;;;;;;2.75;1.40;;;21.50;55.60;;;;;;4996811;28;20205;-77
2023/08/10 02:47:17;;;;;;;2.83;1.42;;;21.40;55.60;;;;;;5014152;28;20240;-77
2023/08/10 02:49:44;;;;;;;1.65;1.55;;;21.40;55.60;;;;;;4996608;28;20201;-77
2023/08/10 02:52:12;;;;;;;1.65;1.55;;;21.40;55.50;;;;;;4996829;28;20652;-77
2023/08/10 02:54:39;;;;;;;1.70;1.60;;;21.40;55.60;;;;;;4996518;28;20200;-77
2023/08/10 02:57:06;;;;;;;1.88;1.50;;;21.30;55.40;;;;;;4996243;28;20196;-77
2023/08/10 02:59:33;;;;;;;1.50;1.40;;;21.30;55.40;;;;;;4996618;28;20195;-77
2023/08/10 03:02:00;;;;;;;1.40;1.30;;;21.30;55.40;;;;;;4996434;28;20208;-77
2023/08/10 03:04:29;;;;;;;2.28;1.67;;;21.30;55.40;;;;;;4996196;28;20193;-77
2023/08/10 03:06:56;;;;;;;1.60;1.50;;;21.30;55.30;;;;;;4996175;28;20228;-77
2023/08/10 03:09:24;;;;;;;1.75;1.50;;;21.30;55.30;;;;;;4996928;28;20193;-77
2023/08/10 03:11:51;;;;;;;1.60;1.50;;;21.30;55.10;;;;;;4996612;28;20220;-77
2023/08/10 03:14:19;;;;;;;1.77;1.67;;;21.30;54.90;;;;;;4996320;28;20219;-77
2023/08/10 03:16:46;;;;;;;1.83;1.67;;;21.30;55.50;;;;;;4996645;28;20224;-77
2023/08/10 03:19:35;;;;;;;1.55;1.45;;;21.30;55.00;;;;;;4999709;28;20184;-77
2023/08/10 03:22:02;;;;;;;1.52;1.42;;;21.40;54.70;;;;;;4996599;28;20219;-77
2023/08/10 03:24:31;;;;;;;2.03;1.52;;;21.50;54.40;;;;;;4996181;28;20224;-77
2023/08/10 03:26:59;;;;;;;4.28;1.70;;;21.60;54.20;;;;;;5013559;28;20221;-77
2023/08/10 03:29:26;;;;;;;3.97;1.50;;;21.70;54.10;;;;;;4996378;28;20193;-77
2023/08/10 03:31:54;;;;;;;2.20;1.60;;;21.70;53.80;;;;;;5001771;28;20220;-77
2023/08/10 03:34:21;;;;;;;1.85;1.35;;;21.80;53.70;;;;;;5006249;28;20189;-77
2023/08/10 03:36:51;;;;;;;1.65;1.55;;;21.90;54.20;;;;;;5000987;28;20216;-77
2023/08/10 03:39:17;;;;;;;1.45;1.35;;;21.90;53.50;;;;;;5001291;28;20599;-77
2023/08/10 03:41:47;;;;;;;1.77;1.67;;;21.90;53.30;;;;;;5000701;28;20220;-77
2023/08/10 03:44:14;;;;;;;1.40;1.30;;;21.90;53.20;;;;;;5001061;28;20196;-77
2023/08/10 03:46:41;;;;;;;1.65;1.45;;;21.90;53.10;;;;;;4999734;28;20318;-78
2023/08/10 03:49:08;;;;;;;1.55;1.45;;;22.00;53.00;;;;;;4999907;28;20559;-78
2023/08/10 03:51:35;;;;;;;1.42;1.33;;;22.00;53.00;;;;;;4999970;28;20223;-78
2023/08/10 03:54:02;;;;;;;1.55;1.45;;;22.00;52.90;;;;;;5017104;28;20197;-78
2023/08/10 03:56:29;;;;;;;1.65;1.55;;;22.00;52.80;;;;;;4999481;28;20193;-78
2023/08/10 03:58:58;;;;;;;1.40;1.30;;;22.00;52.80;;;;;;4983113;28;20224;-78
2023/08/10 04:01:25;;;;;;;1.50;1.40;;;22.00;52.70;;;;;;4999847;28;20235;-78
2023/08/10 04:03:52;;;;;;;1.65;1.55;;;22.00;52.80;;;;;;4999404;28;20199;-78
2023/08/10 04:06:20;;;;;;;1.40;1.30;;;22.00;52.80;;;;;;4999365;28;20221;-78
2023/08/10 04:08:48;;;;;;;1.67;1.50;;;22.00;52.80;;;;;;4998901;28;20288;-78
2023/08/10 04:11:15;;;;;;;1.60;1.50;;;21.90;52.70;;;;;;4999207;28;20244;-78
2023/08/10 04:13:42;;;;;;;2.13;1.65;;;21.90;52.60;;;;;;4998751;28;20707;-78
2023/08/10 04:16:11;;;;;;;1.60;1.50;;;21.90;52.70;;;;;;4982855;28;20228;-78
2023/08/10 04:18:38;;;;;;;1.48;1.38;;;21.90;52.80;;;;;;4999667;28;20203;-78
2023/08/10 04:21:06;;;;;;;1.75;1.65;;;21.90;52.80;;;;;;4998986;28;20217;-78
2023/08/10 04:23:33;;;;;;;1.70;1.60;;;21.80;52.80;;;;;;5016290;28;20197;-78
2023/08/10 04:26:00;;;;;;;1.60;1.50;;;21.70;53.00;;;;;;4998412;28;20271;-78
2023/08/10 04:28:27;;;;;;;1.80;1.70;;;21.60;53.00;;;;;;4999168;28;20207;-78
2023/08/10 04:30:54;;;;;;;1.70;1.60;;;21.60;53.10;;;;;;4999565;28;20209;-78
2023/08/10 04:33:23;;;;;;;1.67;1.58;;;21.60;53.20;;;;;;5016277;28;20188;-78
2023/08/10 04:35:50;;;;;;;1.80;1.70;;;21.50;53.20;;;;;;4998378;28;20247;-78
2023/08/10 04:38:17;;;;;;;1.55;1.45;;;21.50;53.40;;;;;;4999321;28;20254;-78
2023/08/10 04:40:46;;;;;;;1.92;1.75;;;21.50;53.50;;;;;;4998005;28;20221;-78
2023/08/10 04:43:13;;;;;;;2.22;1.60;;;21.50;53.50;;;;;;4998236;28;20193;-78
2023/08/10 04:45:41;;;;;;;1.85;1.70;;;21.50;53.60;;;;;;4998021;28;20683;-78
2023/08/10 04:48:10;;;;;;;1.70;1.60;;;21.50;53.60;;;;;;4997067;28;20731;-78
2023/08/10 04:50:38;;;;;;;1.60;1.50;;;21.50;53.60;;;;;;4997853;28;20212;-78
2023/08/10 04:53:05;;;;;;;1.25;1.23;;;21.50;53.60;;;;;;4997941;28;20204;-78
2023/08/10 04:55:32;;;;;;;1.60;1.50;;;21.50;53.60;;;;;;4998143;28;20271;-78
2023/08/10 04:57:59;;;;;;;1.60;1.50;;;21.50;53.60;;;;;;4998699;28;20193;-79
2023/08/10 05:00:26;;;;;;;1.90;1.70;;;21.50;53.70;;;;;;4997744;28;20275;-78
2023/08/10 05:02:54;;;;;;;1.63;1.52;;;21.50;53.90;;;;;;4981650;28;20200;-79
2023/08/10 05:05:21;;;;;;;1.70;1.60;;;21.40;53.80;;;;;;4998192;28;20250;-78
2023/08/10 05:07:50;;;;;;;1.73;1.50;;;21.50;53.90;;;;;;4999081;28;20303;-79
2023/08/10 05:10:17;;;;;;;1.70;1.60;;;21.40;53.90;;;;;;4997858;28;20220;-79
2023/08/10 05:12:44;;;;;;;1.65;1.55;;;21.40;53.90;;;;;;5114152;22;20233;-82
2023/08/10 05:15:13;;;;;;;2.05;1.52;;;21.50;54.00;;;;;;4980575;28;20233;-82
2023/08/10 05:17:41;;;;;;;1.98;1.60;;;21.50;54.00;;;;;;4979519;28;20198;-82
2023/08/10 05:20:10;;;;;;;1.73;1.63;;;21.50;53.90;;;;;;4980583;28;20205;-82
2023/08/10 05:22:38;;;;;;;1.50;1.40;;;21.60;53.80;;;;;;4979869;28;20203;-80
2023/08/10 05:25:08;;;;;;;1.98;1.55;;;21.70;53.60;;;;;;4979666;28;20243;-81
2023/08/10 05:27:36;;;;;;;1.73;1.63;;;21.80;53.50;;;;;;4979112;28;20273;-81
2023/08/10 05:30:08;;;;;;;2.13;1.60;;;22.00;54.00;;;;;;4979117;28;20199;-81
2023/08/10 05:32:39;;;;;;;1.60;1.50;;;22.00;53.30;;;;;;4980883;28;20205;-81
2023/08/10 05:35:07;;;;;;;3.35;1.58;;;22.10;53.10;;;;;;4978945;28;20664;-81
2023/08/10 05:37:34;;;;;;;2.10;1.90;;;22.20;52.90;;;;;;4979146;28;20264;-81
2023/08/10 05:40:02;;;;;;;1.80;1.70;;;22.30;52.70;;;;;;4997091;28;20601;-81
2023/08/10 05:42:31;;;;;;;2.20;1.60;;;22.40;52.60;;;;;;4963138;28;20260;-81
2023/08/10 05:44:57;;;;;;;1.75;1.65;;;22.50;52.20;;;;;;4979041;28;20189;-82
2023/08/10 05:47:24;;;;;;;1.92;1.80;;;22.50;52.20;;;;;;4979416;28;20304;-82
2023/08/10 05:49:54;;;;;;;3.08;1.80;;;22.70;52.20;;;;;;4981745;28;20197;-80
2023/08/10 05:52:20;;;;;;;2.50;1.88;;;22.70;52.00;;;;;;4962903;28;20200;-80
2023/08/10 05:54:47;;;;;;;2.22;1.75;;;22.80;52.00;;;;;;4979773;28;20205;-80
2023/08/10 05:57:16;;;;;;;1.83;1.73;;;22.90;51.90;;;;;;4963956;28;20239;-80
2023/08/10 05:59:45;;;;;;;2.08;1.83;;;23.00;51.90;;;;;;4980236;28;20708;-80
2023/08/10 06:02:12;;;;;;;1.85;1.75;;;23.10;51.80;;;;;;4980121;28;20249;-80
2023/08/10 06:04:41;;;;;;;2.55;2.13;;;23.20;52.00;;;;;;4979270;28;20251;-79
2023/08/10 06:07:08;;;;;;;1.90;1.77;;;23.10;51.90;;;;;;4979204;28;20684;-81
2023/08/10 06:09:35;;;;;;;1.92;1.65;;;23.10;52.00;;;;;;4979282;28;20198;-82
2023/08/10 06:12:02;;;;;;;2.53;1.65;;;23.00;52.30;;;;;;4979181;28;20235;-81
2023/08/10 06:14:30;;;;;;;2.65;1.83;;;23.00;52.60;;;;;;4963204;28;20695;-82
2023/08/10 06:16:58;;;;;;;2.67;1.63;;;22.90;52.70;;;;;;4979409;28;20217;-82
2023/08/10 06:19:25;;;;;;;1.90;1.80;;;22.90;52.90;;;;;;4962904;28;20276;-81
2023/08/10 06:21:53;;;;;;;1.70;1.60;;;22.80;53.10;;;;;;4963227;28;20218;-80
2023/08/10 06:24:20;;;;;;;1.80;1.70;;;22.80;53.50;;;;;;4979645;28;20304;-78
2023/08/10 06:26:48;;;;;;;2.00;1.90;;;22.70;53.60;;;;;;4978164;28;20247;-78
2023/08/10 06:29:16;;;;;;;2.42;1.98;;;22.70;53.70;;;;;;4962641;28;20300;-78
2023/08/10 06:31:42;;;;;;;1.75;1.65;;;22.70;53.60;;;;;;4995554;28;20210;-78
2023/08/10 06:34:12;;;;;;;1.85;1.70;;;22.70;53.40;;;;;;4979811;28;20296;-78
2023/08/10 06:36:40;;;;;;;1.67;1.40;;;22.70;53.30;;;;;;4995921;28;20213;-78
2023/08/10 06:39:07;;;;;;;1.80;1.70;;;22.70;53.30;;;;;;4978106;28;20201;-79
2023/08/10 06:41:34;;;;;;;1.75;1.48;;;22.80;53.30;;;;;;4978507;28;20217;-78
2023/08/10 06:44:01;;;;;;;1.60;1.50;;;22.80;53.10;;;;;;4994164;28;20225;-78
2023/08/10 06:46:29;;;;;;;1.55;1.45;;;22.80;53.10;;;;;;4977909;28;20216;-78
2023/08/10 06:48:57;;;;;;;1.80;1.70;;;22.90;53.10;;;;;;4977611;28;20197;-78
2023/08/10 06:51:25;;;;;;;2.22;1.58;;;22.80;53.00;;;;;;4977062;28;20336;-78
2023/08/10 06:53:53;;;;;;;2.47;1.52;;;22.80;52.80;;;;;;4961735;28;20198;-78
2023/08/10 06:56:20;;;;;;;1.73;1.63;;;22.90;52.80;;;;;;4977496;28;20249;-78
2023/08/10 06:58:49;;;;;;;1.63;1.50;;;23.00;53.00;;;;;;4996205;28;20193;-78
2023/08/10 07:01:16;;;;;;;2.85;1.80;;;22.90;52.80;;;;;;4982100;28;20221;-78
2023/08/10 07:03:44;;;;;;;1.65;1.55;;;23.00;52.70;;;;;;4964778;28;20206;-78
2023/08/10 07:06:11;;;;;;;2.00;1.80;;;23.00;52.80;;;;;;4980180;28;20189;-78
2023/08/10 07:08:39;;;;;;;1.70;1.52;;;23.00;52.90;;;;;;4980229;28;20251;-78
2023/08/10 07:11:07;;;;;;;1.67;1.58;;;22.90;52.90;;;;;;4985854;28;20217;-78
2023/08/10 07:13:34;;;;;;;2.67;1.50;;;22.90;52.90;;;;;;4984234;28;20592;-78
2023/08/10 07:16:01;;;;;;;1.50;1.40;;;22.90;53.10;;;;;;4983142;28;20201;-78
2023/08/10 07:18:28;;;;;;;1.65;1.55;;;22.90;53.10;;;;;;4967624;28;20202;-78
2023/08/10 07:20:56;;;;;;;1.42;1.33;;;23.00;53.20;;;;;;4983215;28;20320;-78
2023/08/10 07:23:22;;;;;;;1.30;1.20;;;23.00;53.10;;;;;;4967369;28;20284;-78
2023/08/10 07:25:54;;;;;;;1.58;1.48;;;23.00;53.00;;;;;;4983527;28;20232;-78
2023/08/10 07:28:23;;;;;;;1.55;1.45;;;23.00;53.00;;;;;;4999899;28;20615;-78
2023/08/10 07:30:50;;;;;;;1.70;1.60;;;23.00;52.90;;;;;;4982129;28;20684;-78
2023/08/10 07:33:17;;;;;;;1.58;1.30;;;23.10;52.90;;;;;;4980956;28;20221;-78
2023/08/10 07:35:45;;;;;;;1.58;1.45;;;23.10;52.70;;;;;;4981317;28;20288;-78
2023/08/10 07:38:12;;;;;;;1.63;1.50;;;23.10;52.70;;;;;;4964148;28;20237;-78
2023/08/10 07:40:39;;;;;;;1.40;1.30;;;23.10;53.00;;;;;;4979924;28;20659;-78
2023/08/10 07:43:07;;;;;;;1.50;1.40;;;23.20;53.70;;;;;;4981055;28;20699;-78
2023/08/10 07:45:34;;;;;;;1.60;1.50;;;23.20;52.90;;;;;;4980960;28;20205;-78
2023/08/10 07:48:01;;;;;;;2.28;1.52;;;23.30;52.90;;;;;;4964591;28;20210;-78
2023/08/10 07:50:30;;;;;;;2.85;1.70;;;23.20;52.70;;;;;;4981884;28;20221;-79
2023/08/10 07:52:57;;;;;;;1.77;1.60;;;23.30;52.80;;;;;;4981222;28;20197;-79
2023/08/10 07:55:24;;;;;;;2.25;1.50;;;23.30;52.70;;;;;;4980422;28;20201;-79
2023/08/10 07:57:51;;;;;;;1.65;1.50;;;23.30;52.70;;;;;;4980470;28;20219;-79
2023/08/10 08:00:20;;;;;;;2.15;1.30;;;23.40;52.60;;;;;;4980489;28;20571;-79
2023/08/10 08:02:49;;;;;;;1.60;1.50;;;23.40;52.50;;;;;;4998038;28;20301;-79
2023/08/10 08:05:16;;;;;;;1.40;1.30;;;23.40;52.40;;;;;;4980837;28;20205;-79
2023/08/10 08:07:44;;;;;;;1.40;1.30;;;23.50;52.40;;;;;;4965636;28;20221;-79
2023/08/10 08:10:11;;;;;;;2.17;1.50;;;23.50;52.40;;;;;;4980579;28;20277;-79
2023/08/10 08:12:38;;;;;;;1.60;1.50;;;23.50;52.40;;;;;;4997962;28;20228;-79
2023/08/10 08:15:06;;;;;;;1.70;1.50;;;23.60;52.40;;;;;;4980770;28;20280;-79
2023/08/10 08:18:13;;;;;;;1.80;1.65;;;23.60;52.20;;;;;;4980421;28;20520;-79
2023/08/10 08:20:40;;;;;;;1.27;1.20;;;23.60;52.10;;;;;;4980187;28;20660;-79
2023/08/10 08:23:08;;;;;;;1.52;1.42;;;23.60;52.00;;;;;;4980664;28;20206;-79
2023/08/10 08:25:35;;;;;;;1.90;1.50;;;23.70;52.00;;;;;;4980498;28;20201;-79
2023/08/10 08:28:02;;;;;;;1.70;1.60;;;23.70;51.90;;;;;;4979989;28;20304;-79
2023/08/10 08:30:29;;;;;;;2.40;1.40;;;23.80;51.90;;;;;;4963930;28;20217;-79
2023/08/10 08:32:57;;;;;;;1.60;1.50;;;23.80;51.80;;;;;;4979717;28;20671;-79
2023/08/10 08:35:25;;;;;;;1.60;1.50;;;23.80;51.60;;;;;;4980354;28;20260;-80
2023/08/10 08:37:52;;;;;;;1.55;1.25;;;23.90;51.60;;;;;;4981073;28;20200;-80
2023/08/10 08:40:19;;;;;;;1.60;1.50;;;23.90;51.60;;;;;;4982264;28;20218;-80
2023/08/10 08:42:46;;;;;;;2.22;1.45;;;24.00;51.50;;;;;;4982757;28;20208;-80
2023/08/10 08:45:13;;;;;;;1.88;1.50;;;24.00;51.50;;;;;;4983528;28;20572;-80
2023/08/10 08:47:41;;;;;;;1.65;1.55;;;24.10;51.20;;;;;;4983972;28;20312;-80
2023/08/10 08:50:10;;;;;;;1.73;1.63;;;24.20;51.00;;;;;;4980848;28;20252;-80
2023/08/10 08:52:38;;;;;;;1.60;1.50;;;24.30;50.80;;;;;;4979882;28;20292;-80
2023/08/10 08:55:05;;;;;;;3.10;1.60;;;24.30;50.50;;;;;;4980328;28;20259;-80
2023/08/10 08:57:33;;;;;;;1.75;1.58;;;24.50;50.30;;;;;;4980682;28;20194;-80
2023/08/10 09:00:01;;;;;;;1.50;1.40;;;24.60;50.10;;;;;;4983016;28;20190;-80
2023/08/10 09:02:28;;;;;;;1.50;1.40;;;24.70;49.80;;;;;;4984174;28;20193;-80
2023/08/10 09:04:59;;;;;;;1.40;1.30;;;24.80;49.60;;;;;;4981330;28;20197;-80
2023/08/10 09:07:27;;;;;;;1.55;1.40;;;24.90;49.70;;;;;;4998788;28;20300;-80
2023/08/10 09:09:54;;;;;;;1.58;1.40;;;24.90;49.40;;;;;;4964337;28;20193;-80
2023/08/10 09:12:32;;;;;;;1.50;1.40;;;25.00;49.20;;;;;;4980661;28;20569;-80
2023/08/10 09:15:03;;;;;;;1.50;1.40;;;25.10;48.90;;;;;;4980268;28;20219;-80
2023/08/10 09:17:31;;;;;;;1.63;1.52;;;25.20;48.70;;;;;;4980274;28;20556;-80
2023/08/10 09:19:58;;;;;;;1.10;1.10;;;25.30;48.50;;;;;;4980242;28;20196;-80
2023/08/10 09:22:33;;;;;;;1.27;1.20;;;25.40;48.20;;;;;;4979876;28;20229;-80
2023/08/10 09:25:00;;;;;;;1.50;1.40;;;25.50;48.10;;;;;;4979527;28;20185;-80
2023/08/10 09:27:27;;;;;;;1.60;1.50;;;25.50;47.80;;;;;;4980067;28;20225;-79
2023/08/10 09:29:58;;;;;;;1.50;1.40;;;25.60;47.80;;;;;;4980610;28;20206;-79
2023/08/10 09:32:25;;;;;;;1.45;1.35;;;25.60;47.70;;;;;;4980947;28;20296;-79
2023/08/10 09:34:52;;;;;;;2.13;1.40;;;25.70;47.60;;;;;;4981772;28;20189;-79
2023/08/10 09:37:20;;;;;;;1.30;1.20;;;25.70;47.60;;;;;;4982991;28;20268;-79
2023/08/10 09:39:48;;;;;;;1.40;1.30;;;25.80;47.50;;;;;;4980077;28;20251;-79
2023/08/10 09:42:17;;;;;;;1.38;1.27;;;25.90;47.50;;;;;;4978877;28;20561;-79
2023/08/10 09:44:45;;;;;;;1.45;1.33;;;25.90;47.40;;;;;;4978602;28;20678;-79
2023/08/10 09:47:12;;;;;;;1.30;1.20;;;25.90;47.30;;;;;;4978328;28;20205;-79
2023/08/10 09:49:40;;;;;;;1.50;1.40;;;25.90;47.10;;;;;;4978570;28;20205;-79
2023/08/10 09:52:07;;;;;;;1.45;1.35;;;26.00;47.70;;;;;;4964020;28;20213;-80
2023/08/10 09:54:37;;;;;;;1.30;1.20;;;26.00;47.00;;;;;;4979519;28;20200;-80
2023/08/10 09:57:05;;;;;;;1.48;1.38;;;26.00;46.90;;;;;;4962663;28;20239;-80
2023/08/10 09:59:33;;;;;;;1.48;1.38;;;26.10;46.90;;;;;;4978658;28;20581;-80
2023/08/10 10:02:00;;;;;;;1.35;1.25;;;26.10;46.80;;;;;;4978779;28;20299;-80
2023/08/10 10:04:28;;;;;;;1.50;1.35;;;26.10;46.70;;;;;;4979122;28;20193;-80
2023/08/10 10:06:56;;;;;;;1.45;1.35;;;26.10;46.70;;;;;;4979253;28;20204;-80
2023/08/10 10:09:23;;;;;;;1.65;1.55;;;26.20;46.70;;;;;;4981092;28;20219;-80
2023/08/10 10:11:52;;;;;;;1.27;1.17;;;26.20;46.70;;;;;;4980878;28;20236;-80
2023/08/10 10:14:21;;;;;;;1.17;1.17;;;26.20;46.60;;;;;;4964460;28;20679;-80
2023/08/10 10:16:49;;;;;;;1.40;1.30;;;26.20;46.60;;;;;;4980268;28;20255;-80
2023/08/10 10:19:16;;;;;;;1.23;1.10;;;26.20;46.60;;;;;;4979317;28;20251;-80
2023/08/10 10:21:45;;;;;;;1.50;1.40;;;26.20;46.60;;;;;;4980154;28;20272;-80
2023/08/10 10:24:13;;;;;;;1.30;1.20;;;26.20;46.50;;;;;;4979640;28;20208;-80
2023/08/10 10:26:41;;;;;;;1.50;1.40;;;26.20;46.60;;;;;;4982126;28;20205;-80
2023/08/10 10:29:11;;;;;;;1.50;1.40;;;26.20;47.30;;;;;;4993442;28;20212;-80
2023/08/10 10:31:41;;;;;;;1.40;1.30;;;26.20;46.70;;;;;;4993281;28;20216;-80
2023/08/10 10:34:11;;;;;;;1.50;1.40;;;26.20;46.70;;;;;;4993284;28;20593;-80
2023/08/10 10:36:39;;;;;;;1.40;1.30;;;26.10;46.70;;;;;;4985603;28;20217;-80
2023/08/10 10:39:08;;;;;;;1.20;1.20;;;26.10;46.80;;;;;;4981919;28;20704;-80
2023/08/10 10:41:35;;;;;;;1.30;1.20;;;26.10;46.80;;;;;;4981572;28;20275;-80
2023/08/10 10:44:04;;;;;;;1.65;1.40;;;26.10;46.80;;;;;;4981623;28;20236;-80
2023/08/10 10:46:38;;;;;;;1.40;1.30;;;26.10;46.90;;;;;;4984422;28;20197;-80
2023/08/10 10:49:08;;;;;;;1.35;1.20;;;26.10;47.00;;;;;;4968920;28;20267;-80
2023/08/10 10:51:44;;;;;;;1.27;1.17;;;26.00;47.00;;;;;;4985332;28;20212;-80
2023/08/10 10:54:13;;;;;;;1.30;1.20;;;26.00;47.00;;;;;;4984895;28;20615;-80
2023/08/10 10:56:40;;;;;;;1.50;1.40;;;26.00;47.20;;;;;;4984612;28;20231;-80
2023/08/10 10:59:07;;;;;;;1.35;1.25;;;25.90;47.20;;;;;;4968670;28;20288;-80
2023/08/10 11:01:34;;;;;;;1.50;1.40;;;25.90;47.30;;;;;;4984991;28;20243;-80
2023/08/10 11:04:02;;;;;;;1.40;1.30;;;25.90;47.30;;;;;;4984279;28;20615;-80
2023/08/10 11:06:30;;;;;;;1.50;1.40;;;25.90;47.40;;;;;;4984168;28;20205;-80
2023/08/10 11:08:57;;;;;;;1.17;1.10;;;25.80;47.40;;;;;;4984083;28;20221;-80
2023/08/10 11:11:24;;;;;;;1.17;1.17;;;25.80;47.50;;;;;;4983864;28;20232;-80
2023/08/10 11:13:52;;;;;;;1.42;1.30;;;25.80;47.60;;;;;;4984285;28;20563;-80
2023/08/10 11:16:21;;;;;;;1.65;1.27;;;25.80;47.70;;;;;;5001520;28;20211;-80
2023/08/10 11:18:49;;;;;;;1.50;1.40;;;25.80;47.70;;;;;;4968069;28;20193;-80
2023/08/10 11:21:17;;;;;;;1.10;1.10;;;25.80;47.80;;;;;;4983555;28;20213;-80
2023/08/10 11:23:46;;;;;;;1.58;1.30;;;25.70;47.80;;;;;;4983597;28;20201;-80
2023/08/10 11:26:13;;;;;;;1.23;1.17;;;25.70;47.90;;;;;;4983657;28;20207;-80
2023/08/10 11:28:40;;;;;;;1.45;1.27;;;25.70;48.00;;;;;;4983595;28;20263;-80
2023/08/10 11:31:08;;;;;;;1.10;1.10;;;25.70;48.00;;;;;;4981618;28;20217;-80
2023/08/10 11:33:35;;;;;;;1.10;1.10;;;25.70;48.00;;;;;;4980611;28;20255;-80
2023/08/10 11:36:03;;;;;;;1.13;1.00;;;25.70;48.00;;;;;;4964528;28;20201;-80
2023/08/10 11:38:30;;;;;;;1.52;1.42;;;25.60;48.10;;;;;;4980964;28;20232;-80
2023/08/10 11:40:58;;;;;;;1.58;1.48;;;25.70;48.20;;;;;;4980804;28;20213;-80
2023/08/10 11:43:26;;;;;;;1.45;1.35;;;25.60;48.10;;;;;;4980760;28;20193;-80
2023/08/10 11:45:54;;;;;;;1.30;1.20;;;25.60;48.20;;;;;;4981179;28;20256;-80
2023/08/10 11:48:25;;;;;;;1.30;1.20;;;25.60;48.30;;;;;;4980389;28;20240;-80
2023/08/10 11:50:59;;;;;;;1.10;1.10;;;25.60;48.30;;;;;;4966346;28;20227;-80
2023/08/10 11:53:35;;;;;;;1.30;1.20;;;25.60;48.30;;;;;;4980491;28;20200;-80
2023/08/10 11:56:06;;;;;;;1.40;1.30;;;25.60;48.30;;;;;;4980954;28;20208;-80
2023/08/10 11:58:33;;;;;;;1.48;1.38;;;25.60;48.40;;;;;;4980937;28;20691;-80
2023/08/10 12:01:02;;;;;;;1.35;1.25;;;25.60;48.50;;;;;;4998043;28;20244;-80
2023/08/10 12:03:30;;;;;;;1.48;1.38;;;25.60;48.60;;;;;;4980523;28;20682;-80
2023/08/10 12:05:57;;;;;;;1.45;1.35;;;25.50;48.70;;;;;;4980708;28;20243;-80
2023/08/10 12:08:25;;;;;;;1.50;1.40;;;25.50;48.70;;;;;;4981273;28;20225;-80
2023/08/10 12:10:59;;;;;;;1.40;1.30;;;25.50;48.70;;;;;;4980573;28;20209;-80
2023/08/10 12:13:27;;;;;;;1.55;1.38;;;25.50;48.70;;;;;;4980223;28;20644;-80
2023/08/10 12:15:55;;;;;;;1.42;1.33;;;25.50;48.70;;;;;;4980317;28;20197;-80
2023/08/10 12:18:23;;;;;;;1.42;1.33;;;25.50;48.80;;;;;;4980369;28;20193;-80
2023/08/10 12:20:51;;;;;;;1.60;1.50;;;25.50;48.80;;;;;;4980141;28;20233;-80
2023/08/10 12:23:18;;;;;;;1.40;1.30;;;25.50;48.80;;;;;;4981025;28;20225;-80
2023/08/10 12:25:47;;;;;;;1.45;1.38;;;25.50;48.80;;;;;;4981757;28;20653;-80
2023/08/10 12:28:16;;;;;;;1.40;1.30;;;25.50;48.80;;;;;;4981105;28;20212;-80
2023/08/10 12:30:44;;;;;;;1.27;1.17;;;25.50;48.90;;;;;;4980098;28;20563;-80
2023/08/10 12:33:12;;;;;;;1.13;1.13;;;25.50;48.90;;;;;;4964083;28;20205;-80
2023/08/10 12:35:38;;;;;;;1.10;1.10;;;25.50;48.90;;;;;;4997594;28;20556;-80
2023/08/10 12:38:05;;;;;;;1.30;1.20;;;25.50;48.90;;;;;;4979734;28;20208;-80
2023/08/10 12:40:33;;;;;;;1.42;1.33;;;25.50;49.00;;;;;;4980167;28;20224;-80
2023/08/10 12:43:00;;;;;;;1.45;1.30;;;25.50;49.10;;;;;;4964725;28;20201;-80
2023/08/10 12:45:27;;;;;;;1.20;1.20;;;25.50;49.10;;;;;;4980126;28;20208;-80
2023/08/10 12:47:56;;;;;;;1.08;1.08;;;25.40;49.00;;;;;;4980034;28;20200;-80
2023/08/10 12:50:24;;;;;;;1.30;1.30;;;25.40;49.10;;;;;;4979638;28;20316;-80
2023/08/10 12:52:51;;;;;;;1.30;1.20;;;25.50;49.20;;;;;;4964323;28;20201;-80